createdAt,value
2017-12-13T00:02:20.695Z,55.37
2017-12-13T00:04:47.047Z,53.63
2017-12-13T00:07:13.408Z,52.27
2017-12-13T00:09:39.809Z,49.57
2017-12-13T00:12:06.173Z,50.90
2017-12-13T00:14:32.660Z,40.87
2017-12-13T00:16:59.279Z,39.47
2017-12-13T00:19:25.616Z,40.37
2017-12-13T00:21:51.928Z,38.47
2017-12-13T00:24:18.298Z,38.40
2017-12-13T00:26:44.625Z,39.87
2017-12-13T00:29:10.949Z,41.43
2017-12-13T00:31:37.304Z,40.63
2017-12-13T00:34:03.718Z,39.57
2017-12-13T00:36:30.085Z,40.47
2017-12-13T00:38:56.539Z,40.40
2017-12-13T00:41:22.868Z,39.77
2017-12-13T00:43:49.193Z,42.07
2017-12-13T00:46:15.659Z,40.87
2017-12-13T00:48:42.024Z,41.13
2017-12-13T00:51:08.351Z,37.80
2017-12-13T00:53:34.752Z,38.37
2017-12-13T00:56:01.182Z,37.97
2017-12-13T00:58:27.550Z,35.30
2017-12-13T01:00:53.924Z,34.20
2017-12-13T01:03:20.300Z,31.90
2017-12-13T01:05:46.675Z,31.57
2017-12-13T01:08:13.080Z,30.03
2017-12-13T01:10:39.452Z,29.83
2017-12-13T01:13:05.795Z,29.17
2017-12-13T01:15:32.175Z,28.80
2017-12-13T01:17:58.509Z,28.97
2017-12-13T01:20:24.934Z,29.33
2017-12-13T01:22:51.312Z,29.33
2017-12-13T01:25:17.628Z,29.13
2017-12-13T01:27:43.980Z,29.40
2017-12-13T01:30:10.585Z,28.07
2017-12-13T01:32:36.977Z,27.07
2017-12-13T01:35:03.316Z,28.50
2017-12-13T01:37:29.707Z,27.10
2017-12-13T01:39:56.036Z,26.53
2017-12-13T01:42:22.372Z,25.07
2017-12-13T01:44:48.765Z,26.93
2017-12-13T01:47:15.092Z,27.63
2017-12-13T01:49:41.464Z,24.97
2017-12-13T01:52:07.850Z,23.70
2017-12-13T01:54:34.192Z,22.70
2017-12-13T01:57:00.585Z,24.37
2017-12-13T01:59:27.032Z,24.70
2017-12-13T02:01:53.449Z,25.40
2017-12-13T02:04:19.883Z,25.57
2017-12-13T02:06:46.315Z,25.87
2017-12-13T02:09:12.774Z,24.03
2017-12-13T02:11:39.285Z,23.77
2017-12-13T02:14:05.736Z,25.83
2017-12-13T02:16:32.079Z,26.13
2017-12-13T02:18:58.443Z,26.83
2017-12-13T02:21:24.851Z,28.87
2017-12-13T02:23:51.246Z,26.97
2017-12-13T02:26:17.596Z,27.53
2017-12-13T02:28:43.983Z,27.20
2017-12-13T02:31:10.309Z,27.13
2017-12-13T02:33:36.632Z,27.27
2017-12-13T02:36:03.020Z,27.67
2017-12-13T02:38:29.399Z,28.50
2017-12-13T02:41:00.743Z,27.00
2017-12-13T02:43:27.128Z,27.43
2017-12-13T02:45:53.463Z,28.17
2017-12-13T02:48:19.778Z,28.43
2017-12-13T02:50:46.280Z,30.40
2017-12-13T02:53:12.724Z,29.60
2017-12-13T02:55:39.288Z,29.97
2017-12-13T02:58:05.819Z,29.93
2017-12-13T03:00:32.237Z,28.97
2017-12-13T03:02:58.624Z,28.33
2017-12-13T03:05:25.092Z,27.67
2017-12-13T03:07:51.502Z,28.37
2017-12-13T03:10:17.912Z,26.13
2017-12-13T03:12:44.327Z,24.73
2017-12-13T03:15:10.737Z,24.37
2017-12-13T03:17:37.300Z,24.83
2017-12-13T03:20:03.748Z,23.07
2017-12-13T03:22:30.180Z,25.17
2017-12-13T03:24:56.539Z,26.07
2017-12-13T03:27:22.916Z,25.30
2017-12-13T03:29:49.244Z,23.37
2017-12-13T03:32:15.600Z,23.93
2017-12-13T03:34:41.984Z,22.90
2017-12-13T03:37:08.347Z,23.53
2017-12-13T03:39:34.693Z,22.23
2017-12-13T03:42:01.087Z,23.13
2017-12-13T03:44:27.407Z,22.77
2017-12-13T03:46:53.792Z,21.17
2017-12-13T03:49:20.199Z,22.53
2017-12-13T03:51:46.540Z,22.93
2017-12-13T03:54:12.844Z,23.03
2017-12-13T03:56:39.208Z,22.57
2017-12-13T03:59:05.540Z,22.73
2017-12-13T04:01:31.891Z,22.37
2017-12-13T04:03:58.269Z,21.90
2017-12-13T04:06:24.617Z,21.50
2017-12-13T04:08:50.980Z,20.20
2017-12-13T04:11:17.356Z,19.67
2017-12-13T04:13:43.680Z,19.93
2017-12-13T04:16:10.010Z,22.10
2017-12-13T04:18:36.415Z,22.33
2017-12-13T04:21:03.747Z,22.27
2017-12-13T04:23:30.092Z,23.37
2017-12-13T04:25:56.519Z,23.07
2017-12-13T04:28:22.928Z,24.30
2017-12-13T04:30:49.257Z,24.13
2017-12-13T04:33:15.692Z,25.63
2017-12-13T04:35:42.016Z,26.07
2017-12-13T04:38:08.331Z,26.43
2017-12-13T04:40:34.787Z,26.60
2017-12-13T04:43:01.147Z,26.23
2017-12-13T04:45:27.476Z,27.63
2017-12-13T04:47:53.854Z,26.80
2017-12-13T04:50:20.172Z,27.47
2017-12-13T04:52:46.500Z,28.60
2017-12-13T04:55:12.893Z,28.37
2017-12-13T04:57:39.212Z,28.93
2017-12-13T05:00:05.563Z,26.13
2017-12-13T05:02:32.072Z,25.10
2017-12-13T05:04:58.384Z,24.23
2017-12-13T05:07:24.757Z,26.07
2017-12-13T05:09:51.208Z,27.33
2017-12-13T05:12:17.599Z,26.37
2017-12-13T05:14:43.959Z,30.20
2017-12-13T05:17:10.420Z,31.50
2017-12-13T05:19:36.791Z,32.93
2017-12-13T05:22:03.307Z,33.57
2017-12-13T05:24:29.704Z,36.17
2017-12-13T05:26:56.235Z,40.70
2017-12-13T05:29:22.600Z,36.97
2017-12-13T05:31:48.988Z,33.50
2017-12-13T05:34:15.364Z,40.00
2017-12-13T05:36:41.704Z,38.87
2017-12-13T05:39:08.076Z,60.17
2017-12-13T05:41:34.408Z,60.40
2017-12-13T05:44:00.765Z,49.80
2017-12-13T05:46:27.175Z,53.63
2017-12-13T05:48:53.499Z,46.57
2017-12-13T05:51:19.831Z,46.33
2017-12-13T05:53:46.350Z,44.37
2017-12-13T05:56:12.680Z,46.67
2017-12-13T05:58:38.993Z,45.10
2017-12-13T06:01:05.403Z,43.50
2017-12-13T06:03:31.760Z,41.10
2017-12-13T06:05:58.123Z,45.60
2017-12-13T06:08:24.642Z,50.50
2017-12-13T06:10:50.980Z,52.37
2017-12-13T06:13:17.407Z,56.37
2017-12-13T06:15:44.056Z,57.93
2017-12-13T06:18:10.505Z,60.50
2017-12-13T06:20:36.872Z,57.57
2017-12-13T06:23:03.329Z,57.77
2017-12-13T06:25:29.716Z,53.07
2017-12-13T06:27:56.045Z,52.10
2017-12-13T06:30:22.412Z,51.57
2017-12-13T06:32:48.752Z,52.63
2017-12-13T06:35:15.368Z,64.07
2017-12-13T06:37:41.880Z,59.53
2017-12-13T06:40:08.292Z,50.93
2017-12-13T06:42:34.635Z,54.83
2017-12-13T06:45:01.048Z,56.23
2017-12-13T06:47:27.439Z,58.73
2017-12-13T06:49:53.984Z,58.20
2017-12-13T06:52:20.442Z,63.87
2017-12-13T06:54:46.760Z,64.00
2017-12-13T06:57:13.103Z,56.90
2017-12-13T06:59:39.464Z,59.97
2017-12-13T07:02:05.996Z,57.40
2017-12-13T07:04:32.371Z,60.13
2017-12-13T07:06:58.912Z,61.90
2017-12-13T07:09:25.248Z,74.00
2017-12-13T07:11:51.705Z,82.93
2017-12-13T07:14:18.097Z,88.23
2017-12-13T07:16:44.436Z,86.30
2017-12-13T07:19:10.776Z,90.30
2017-12-13T07:21:37.273Z,95.77
2017-12-13T07:24:03.613Z,88.00
2017-12-13T07:26:29.967Z,95.77
2017-12-13T07:28:56.359Z,97.87
2017-12-13T07:31:22.759Z,84.17
2017-12-13T07:33:49.173Z,86.73
2017-12-13T07:36:15.564Z,79.87
2017-12-13T07:38:42.369Z,75.63
2017-12-13T07:41:09.004Z,71.67
2017-12-13T07:43:35.456Z,70.67
2017-12-13T07:46:01.856Z,94.33
2017-12-13T07:48:28.201Z,84.70
2017-12-13T07:50:54.588Z,92.77
2017-12-13T07:53:20.915Z,109.70
2017-12-13T07:55:47.235Z,103.60
2017-12-13T07:58:13.670Z,67.63
2017-12-13T08:00:40.036Z,89.83
2017-12-13T08:03:06.443Z,90.37
2017-12-13T08:05:32.867Z,84.67
2017-12-13T08:07:59.213Z,93.87
2017-12-13T08:10:25.608Z,90.17
2017-12-13T08:12:51.999Z,96.50
2017-12-13T08:15:18.353Z,97.47
2017-12-13T08:17:44.684Z,93.47
2017-12-13T08:20:11.113Z,103.27
2017-12-13T08:22:37.546Z,98.90
2017-12-13T08:25:04.016Z,74.20
2017-12-13T08:27:30.700Z,87.40
2017-12-13T08:29:57.035Z,101.00
2017-12-13T08:32:23.392Z,95.13
2017-12-13T08:34:49.846Z,88.97
2017-12-13T08:37:16.231Z,75.57
2017-12-13T08:39:42.586Z,65.07
2017-12-13T08:42:09.119Z,61.47
2017-12-13T08:44:35.488Z,55.40
2017-12-13T08:47:01.861Z,46.13
2017-12-13T08:49:28.236Z,46.33
2017-12-13T08:51:54.753Z,45.20
2017-12-13T08:54:21.123Z,45.17
2017-12-13T08:56:47.579Z,43.63
2017-12-13T08:59:13.900Z,44.67
2017-12-13T09:01:40.296Z,51.23
2017-12-13T09:04:06.893Z,45.90
2017-12-13T09:06:33.301Z,46.57
2017-12-13T09:08:59.655Z,42.50
2017-12-13T09:11:26.184Z,40.90
2017-12-13T09:13:52.584Z,42.20
2017-12-13T09:16:19.012Z,42.40
2017-12-13T09:18:45.555Z,43.17
2017-12-13T09:21:11.918Z,43.60
2017-12-13T09:23:38.472Z,38.33
2017-12-13T09:26:04.991Z,39.17
2017-12-13T09:28:31.556Z,37.23
2017-12-13T09:30:58.296Z,35.63
2017-12-13T09:33:24.748Z,37.40
2017-12-13T09:35:51.152Z,37.80
2017-12-13T09:38:17.519Z,40.77
2017-12-13T09:40:43.952Z,38.63
2017-12-13T09:43:10.294Z,37.17
2017-12-13T09:45:36.692Z,38.23
2017-12-13T09:48:03.119Z,35.37
2017-12-13T09:50:29.561Z,35.07
2017-12-13T09:52:55.968Z,32.03
2017-12-13T09:55:22.385Z,28.73
2017-12-13T09:57:48.805Z,25.87
2017-12-13T10:00:15.224Z,27.40
2017-12-13T10:02:41.909Z,27.13
2017-12-13T10:05:09.617Z,24.43
2017-12-13T10:07:36.104Z,21.20
2017-12-13T10:10:02.548Z,20.83
2017-12-13T10:12:28.945Z,21.10
2017-12-13T10:14:55.504Z,18.97
2017-12-13T10:17:21.937Z,19.93
2017-12-13T10:19:48.292Z,21.23
2017-12-13T10:22:14.726Z,20.33
2017-12-13T10:24:41.375Z,19.17
2017-12-13T10:27:07.818Z,20.03
2017-12-13T10:29:34.173Z,19.43
2017-12-13T10:32:00.740Z,19.83
2017-12-13T10:34:27.200Z,18.97
2017-12-13T10:36:53.583Z,18.70
2017-12-13T10:39:20.029Z,18.63
2017-12-13T10:41:46.360Z,19.43
2017-12-13T10:44:12.712Z,18.00
2017-12-13T10:46:39.104Z,18.40
2017-12-13T10:49:05.428Z,17.57
2017-12-13T10:51:31.773Z,18.40
2017-12-13T10:53:58.257Z,18.53
2017-12-13T10:56:24.793Z,15.20
2017-12-13T10:58:51.177Z,18.20
2017-12-13T11:01:17.680Z,17.63
2017-12-13T11:03:44.132Z,17.90
2017-12-13T11:06:10.628Z,20.40
2017-12-13T11:08:37.044Z,19.13
2017-12-13T11:11:03.699Z,18.77
2017-12-13T11:13:30.188Z,17.43
2017-12-13T11:15:56.648Z,16.37
2017-12-13T11:18:23.102Z,16.73
2017-12-13T11:20:49.456Z,17.80
2017-12-13T11:23:15.873Z,18.47
2017-12-13T11:25:42.330Z,19.17
2017-12-13T11:28:08.762Z,19.03
2017-12-13T11:30:35.199Z,16.47
2017-12-13T11:33:01.615Z,17.23
2017-12-13T11:35:28.052Z,16.93
2017-12-13T11:37:54.720Z,18.57
2017-12-13T11:40:21.122Z,16.23
2017-12-13T11:42:47.516Z,17.33
2017-12-13T11:45:13.916Z,16.07
2017-12-13T11:47:40.301Z,14.37
2017-12-13T11:50:06.707Z,15.50
2017-12-13T11:52:33.116Z,16.80
2017-12-13T11:54:59.551Z,16.03
2017-12-13T11:57:25.970Z,14.20
2017-12-13T11:59:52.524Z,14.50
2017-12-13T12:02:18.931Z,13.87
2017-12-13T12:04:45.375Z,14.33
2017-12-13T12:07:11.876Z,14.33
2017-12-13T12:09:38.488Z,15.43
2017-12-13T12:12:04.975Z,15.00
2017-12-13T12:14:31.373Z,14.10
2017-12-13T12:16:57.781Z,16.57
2017-12-13T12:19:24.176Z,16.27
2017-12-13T12:21:50.648Z,16.37
2017-12-13T12:24:17.004Z,16.47
2017-12-13T12:26:43.409Z,15.93
2017-12-13T12:29:09.800Z,16.50
2017-12-13T12:31:36.200Z,16.07
2017-12-13T12:34:02.588Z,17.67
2017-12-13T12:36:29.056Z,19.77
2017-12-13T12:38:55.500Z,22.03
2017-12-13T12:41:22.119Z,18.57
2017-12-13T12:43:48.576Z,20.37
2017-12-13T12:46:15.007Z,14.00
2017-12-13T12:48:41.371Z,12.77
2017-12-13T12:51:07.775Z,16.60
2017-12-13T12:53:34.381Z,17.00
2017-12-13T12:56:00.739Z,18.00
2017-12-13T12:58:27.275Z,20.97
2017-12-13T13:00:53.660Z,23.33
2017-12-13T13:03:20.004Z,21.63
2017-12-13T13:05:46.403Z,21.50
2017-12-13T13:08:12.779Z,18.93
2017-12-13T13:10:39.237Z,20.83
2017-12-13T13:13:05.677Z,21.70
2017-12-13T13:15:32.102Z,21.47
2017-12-13T13:17:58.567Z,19.83
2017-12-13T13:20:25.175Z,18.30
2017-12-13T13:22:51.635Z,18.03
2017-12-13T13:25:18.023Z,18.83
2017-12-13T13:27:44.644Z,21.30
2017-12-13T13:30:11.317Z,20.40
2017-12-13T13:32:37.854Z,21.67
2017-12-13T13:35:04.388Z,25.40
2017-12-13T13:37:30.751Z,23.33
2017-12-13T13:39:57.460Z,22.33
2017-12-13T13:42:23.884Z,20.70
2017-12-13T13:44:50.240Z,22.37
2017-12-13T13:47:16.632Z,25.60
2017-12-13T13:49:43.047Z,28.60
2017-12-13T13:52:09.419Z,28.83
2017-12-13T13:54:35.855Z,31.00
2017-12-13T13:57:02.237Z,32.20
2017-12-13T13:59:28.695Z,28.70
2017-12-13T14:01:55.109Z,24.30
2017-12-13T14:04:21.485Z,24.47
2017-12-13T14:06:47.852Z,27.50
2017-12-13T14:09:14.227Z,26.83
2017-12-13T14:11:40.613Z,27.50
2017-12-13T14:14:06.992Z,26.93
2017-12-13T14:16:33.363Z,35.93
2017-12-13T14:18:59.763Z,39.67
2017-12-13T14:21:26.156Z,40.67
2017-12-13T14:23:52.563Z,40.10
2017-12-13T14:26:19.185Z,41.50
2017-12-13T14:28:45.663Z,78.40
2017-12-13T14:31:12.077Z,88.70
2017-12-13T14:33:38.510Z,60.17
2017-12-13T14:36:04.897Z,60.40
2017-12-13T14:38:31.299Z,61.43
2017-12-13T14:40:57.692Z,73.37
2017-12-13T14:43:24.026Z,74.97
2017-12-13T14:45:50.441Z,78.23
2017-12-13T14:48:17.104Z,70.27
2017-12-13T14:50:43.460Z,85.27
2017-12-13T14:53:09.817Z,77.43
2017-12-13T14:55:36.225Z,74.47
2017-12-13T14:58:02.607Z,70.73
2017-12-13T15:00:28.938Z,71.07
2017-12-13T15:02:55.473Z,68.10
2017-12-13T15:05:21.992Z,68.40
2017-12-13T15:07:48.367Z,67.40
2017-12-13T15:10:14.747Z,98.20
2017-12-13T15:12:41.084Z,112.83
2017-12-13T15:15:07.413Z,89.97
2017-12-13T15:17:33.837Z,82.53
2017-12-13T15:20:00.380Z,72.27
2017-12-13T15:22:27.665Z,62.40
2017-12-13T15:24:54.029Z,64.83
2017-12-13T15:27:20.528Z,57.77
2017-12-13T15:29:46.865Z,59.17
2017-12-13T15:32:13.248Z,58.20
2017-12-13T15:34:39.962Z,60.20
2017-12-13T15:37:06.463Z,60.87
2017-12-13T15:39:33.068Z,72.07
2017-12-13T15:41:59.499Z,60.60
2017-12-13T15:44:25.892Z,70.93
2017-12-13T15:46:52.399Z,69.23
2017-12-13T15:49:18.755Z,76.13
2017-12-13T15:51:45.124Z,52.20
2017-12-13T15:54:11.577Z,60.77
2017-12-13T15:56:39.037Z,61.30
2017-12-13T15:59:05.436Z,63.77
2017-12-13T16:01:33.419Z,63.57
2017-12-13T16:03:59.749Z,62.10
2017-12-13T16:06:27.604Z,62.47
2017-12-13T16:08:54.064Z,61.97
2017-12-13T16:11:20.404Z,66.53
2017-12-13T16:13:46.737Z,66.23
2017-12-13T16:16:13.388Z,59.50
2017-12-13T16:18:40.351Z,63.30
2017-12-13T16:21:06.692Z,52.50
2017-12-13T16:23:33.906Z,64.77
2017-12-13T16:26:00.284Z,68.23
2017-12-13T16:28:27.829Z,75.63
2017-12-13T16:30:54.267Z,75.47
2017-12-13T16:33:20.657Z,73.70
2017-12-13T16:35:47.092Z,78.00
2017-12-13T16:38:15.368Z,82.33
2017-12-13T16:40:41.804Z,83.50
2017-12-13T16:43:08.246Z,61.00
2017-12-13T16:45:34.872Z,73.23
2017-12-13T16:48:01.230Z,75.67
2017-12-13T16:50:27.877Z,72.93
2017-12-13T16:52:54.456Z,55.43
2017-12-13T16:55:20.926Z,56.63
2017-12-13T16:57:47.466Z,76.93
2017-12-13T17:00:14.409Z,80.33
2017-12-13T17:02:41.308Z,81.90
2017-12-13T17:05:07.767Z,81.13
2017-12-13T17:07:34.359Z,82.87
2017-12-13T17:10:00.840Z,79.30
2017-12-13T17:12:27.391Z,80.90
2017-12-13T17:14:53.888Z,84.47
2017-12-13T17:17:20.316Z,86.43
2017-12-13T17:19:46.734Z,87.07
2017-12-13T17:22:13.260Z,88.37
2017-12-13T17:24:39.700Z,88.60
2017-12-13T17:27:06.072Z,94.10
2017-12-13T17:29:32.504Z,98.53
2017-12-13T17:31:58.912Z,99.83
2017-12-13T17:34:26.113Z,98.97
2017-12-13T17:36:52.602Z,101.57
2017-12-13T17:39:18.957Z,113.90
2017-12-13T17:41:45.396Z,113.87
2017-12-13T17:44:11.851Z,113.07
2017-12-13T17:46:38.469Z,120.93
2017-12-13T17:49:04.922Z,119.33
2017-12-13T17:51:31.352Z,118.83
2017-12-13T17:53:58.230Z,134.30
2017-12-13T17:56:24.676Z,135.50
2017-12-13T17:58:51.115Z,140.20
2017-12-13T18:01:17.511Z,144.97
2017-12-13T18:03:44.031Z,144.37
2017-12-13T18:06:10.495Z,151.70
2017-12-13T18:08:36.891Z,161.03
2017-12-13T18:11:03.288Z,185.03
2017-12-13T18:13:29.746Z,197.07
2017-12-13T18:15:56.196Z,169.63
2017-12-13T18:18:22.937Z,252.37
2017-12-13T18:20:49.483Z,264.50
2017-12-13T18:23:15.924Z,285.57
2017-12-13T18:25:42.339Z,308.53
2017-12-13T18:28:08.862Z,320.70
2017-12-13T18:30:35.413Z,319.07
2017-12-13T18:33:01.824Z,340.10
2017-12-13T18:35:28.305Z,358.03
2017-12-13T18:37:54.792Z,359.03
2017-12-13T18:40:21.486Z,343.93
2017-12-13T18:42:47.938Z,339.33
2017-12-13T18:45:14.696Z,334.87
2017-12-13T18:47:41.119Z,325.83
2017-12-13T18:50:07.570Z,303.37
2017-12-13T18:52:33.966Z,283.13
2017-12-13T18:55:00.480Z,218.83
2017-12-13T18:57:27.597Z,203.43
2017-12-13T18:59:54.079Z,191.60
2017-12-13T19:02:20.660Z,183.20
2017-12-13T19:04:47.184Z,170.30
2017-12-13T19:07:13.600Z,155.60
2017-12-13T19:09:40.012Z,157.73
2017-12-13T19:12:06.495Z,153.13
2017-12-13T19:14:32.986Z,153.60
2017-12-13T19:16:59.617Z,138.37
2017-12-13T19:19:26.093Z,111.27
2017-12-13T19:21:53.129Z,101.13
2017-12-13T19:24:20.136Z,87.83
2017-12-13T19:26:47.733Z,84.17
2017-12-13T19:29:14.087Z,85.90
2017-12-13T19:31:40.557Z,78.83
2017-12-13T19:34:07.260Z,81.30
2017-12-13T19:36:33.696Z,77.63
2017-12-13T19:39:00.097Z,76.23
2017-12-13T19:41:26.708Z,80.17
2017-12-13T19:43:53.060Z,81.93
2017-12-13T19:46:19.487Z,85.20
2017-12-13T19:48:45.996Z,90.13
2017-12-13T19:51:12.524Z,89.40
2017-12-13T19:53:38.908Z,97.30
2017-12-13T19:56:05.344Z,106.67
2017-12-13T19:58:31.823Z,113.23
2017-12-13T20:00:58.235Z,123.47
2017-12-13T20:03:24.771Z,121.37
2017-12-13T20:05:51.327Z,121.43
2017-12-13T20:08:18.299Z,110.10
2017-12-13T20:10:44.844Z,105.97
2017-12-13T20:13:11.252Z,106.40
2017-12-13T20:15:37.655Z,105.17
2017-12-13T20:18:04.084Z,100.07
2017-12-13T20:20:30.472Z,97.07
2017-12-13T20:22:57.080Z,106.20
2017-12-13T20:25:23.589Z,100.07
2017-12-13T20:27:49.996Z,97.50
2017-12-13T20:30:16.533Z,86.03
2017-12-13T20:32:42.929Z,80.77
2017-12-13T20:35:09.332Z,77.33
2017-12-13T20:37:35.780Z,83.83
2017-12-13T20:40:02.302Z,98.60
2017-12-13T20:42:28.858Z,93.47
2017-12-13T20:44:55.241Z,91.80
2017-12-13T20:47:21.777Z,106.37
2017-12-13T20:49:49.061Z,109.27
2017-12-13T20:52:15.594Z,101.60
2017-12-13T20:54:42.154Z,96.83
2017-12-13T20:57:08.785Z,99.50
2017-12-13T20:59:35.625Z,99.37
2017-12-13T21:02:02.113Z,103.33
2017-12-13T21:04:28.577Z,103.47
2017-12-13T21:06:54.960Z,100.83
2017-12-13T21:09:21.432Z,94.30
2017-12-13T21:11:47.819Z,82.67
2017-12-13T21:14:14.202Z,76.17
2017-12-13T21:16:40.625Z,74.87
2017-12-13T21:19:07.096Z,71.00
2017-12-13T21:21:33.476Z,69.30
2017-12-13T21:23:59.958Z,68.87
2017-12-13T21:26:26.324Z,66.23
2017-12-13T21:28:52.692Z,63.10
2017-12-13T21:31:19.515Z,60.03
2017-12-13T21:33:45.923Z,57.43
2017-12-13T21:36:12.406Z,54.97
2017-12-13T21:38:38.825Z,54.00
2017-12-13T21:41:05.408Z,56.30
2017-12-13T21:43:31.792Z,54.40
2017-12-13T21:45:58.232Z,60.00
2017-12-13T21:48:24.790Z,56.77
2017-12-13T21:50:51.137Z,57.60
2017-12-13T21:53:17.684Z,60.40
2017-12-13T21:55:44.127Z,62.50
2017-12-13T21:58:10.637Z,60.73
2017-12-13T22:00:37.100Z,60.37
2017-12-13T22:03:03.483Z,59.70
2017-12-13T22:05:30.264Z,56.60
2017-12-13T22:07:56.992Z,59.33
2017-12-13T22:10:23.573Z,59.50
2017-12-13T22:12:50.087Z,59.97
2017-12-13T22:15:16.716Z,60.13
2017-12-13T22:17:43.392Z,58.93
2017-12-13T22:20:09.744Z,61.63
2017-12-13T22:22:36.320Z,59.90
2017-12-13T22:25:02.943Z,61.87
2017-12-13T22:27:29.596Z,60.57
2017-12-13T22:29:56.039Z,61.83
2017-12-13T22:32:22.397Z,60.73
2017-12-13T22:34:48.820Z,64.00
2017-12-13T22:37:15.240Z,57.73
2017-12-13T22:39:41.593Z,66.60
2017-12-13T22:42:08.045Z,68.47
2017-12-13T22:44:34.444Z,67.90
2017-12-13T22:47:00.877Z,64.37
2017-12-13T22:49:27.306Z,66.87
2017-12-13T22:51:53.768Z,67.03
2017-12-13T22:54:20.152Z,69.57
2017-12-13T22:56:46.578Z,69.00
2017-12-13T22:59:13.008Z,66.87
2017-12-13T23:01:39.626Z,70.53
2017-12-13T23:04:06.288Z,69.40
2017-12-13T23:06:32.776Z,70.17
2017-12-13T23:08:59.132Z,69.63
2017-12-13T23:11:25.511Z,71.53
2017-12-13T23:13:52.210Z,72.47
2017-12-13T23:16:18.581Z,65.67
2017-12-13T23:18:44.964Z,62.13
2017-12-13T23:21:11.347Z,60.23
2017-12-13T23:23:37.736Z,61.83
2017-12-13T23:26:04.115Z,59.63
2017-12-13T23:28:30.669Z,57.20
2017-12-13T23:30:57.087Z,51.37
2017-12-13T23:33:23.587Z,47.37
2017-12-13T23:35:50.071Z,47.37
2017-12-13T23:38:16.493Z,48.27
2017-12-13T23:40:42.871Z,49.50
2017-12-13T23:43:09.296Z,48.17
2017-12-13T23:45:35.855Z,47.27
2017-12-13T23:48:02.257Z,47.70
2017-12-13T23:50:28.728Z,45.57
2017-12-13T23:52:55.130Z,47.17
2017-12-13T23:55:21.612Z,43.23
2017-12-13T23:57:48.124Z,44.37
